Time;durP1;ratioP1;P1;durP2;ratioP2;P2;SDS_P1;SDS_P2;PMS_P1;PMS_P2;Temp;Humidity;BMP_temperature;BMP_pressure;BME280_temperature;BME280_humidity;BME280_pressure;Samples;Min_cycle;Max_cycle;Signal;HPM_P1;HPM_P2
2023/01/23 00:01:48;;;;;;;29.33;12.43;;;;;;;-7.77;100.00;96492.50;4971780;28;20046;-70
2023/01/23 00:04:14;;;;;;;26.50;11.68;;;;;;;-7.78;100.00;96493.47;4971905;28;20122;-70
2023/01/23 00:06:40;;;;;;;31.83;12.98;;;;;;;-7.78;100.00;96501.13;4970504;28;20043;-70
2023/01/23 00:09:06;;;;;;;31.85;12.63;;;;;;;-7.81;100.00;96501.38;4965714;28;20039;-71
2023/01/23 00:11:33;;;;;;;26.20;11.63;;;;;;;-7.79;100.00;96509.72;4958398;28;20170;-70
2023/01/23 00:13:59;;;;;;;24.33;10.70;;;;;;;-7.80;100.00;96508.09;4973087;28;20043;-71
2023/01/23 00:16:29;;;;;;;29.23;11.40;;;;;;;-7.90;100.00;96511.44;4970098;28;20043;-71
2023/01/23 00:18:54;;;;;;;27.52;12.23;;;;;;;-7.90;100.00;96508.91;4965064;28;20517;-71
2023/01/23 00:21:24;;;;;;;29.45;11.25;;;;;;;-7.88;100.00;96506.22;4954470;28;20047;-71
2023/01/23 00:23:53;;;;;;;28.67;12.40;;;;;;;-7.88;100.00;96512.13;4965789;28;20130;-70
2023/01/23 00:26:21;;;;;;;30.42;12.30;;;;;;;-7.93;100.00;96510.88;4966557;28;20090;-71
2023/01/23 00:28:47;;;;;;;24.83;11.90;;;;;;;-8.03;100.00;96508.28;4968798;28;20050;-71
2023/01/23 00:31:25;;;;;;;30.38;11.60;;;;;;;-8.05;100.00;96505.88;4954771;28;20055;-71
2023/01/23 00:33:59;;;;;;;26.30;11.30;;;;;;;-8.06;100.00;96503.44;4966132;28;20062;-71
2023/01/23 00:36:28;;;;;;;28.55;12.75;;;;;;;-8.16;100.00;96502.59;4966416;28;20093;-71
2023/01/23 00:38:54;;;;;;;26.38;11.43;;;;;;;-8.18;100.00;96500.16;4968838;28;20129;-71
2023/01/23 00:41:20;;;;;;;27.52;12.43;;;;;;;-8.32;100.00;96497.97;4967355;28;20636;-71
2023/01/23 00:43:47;;;;;;;25.67;11.55;;;;;;;-8.38;100.00;96502.63;4972969;28;20563;-71
2023/01/23 00:46:13;;;;;;;28.35;11.48;;;;;;;-8.42;100.00;96503.84;4968978;28;20039;-71
2023/01/23 00:48:38;;;;;;;22.83;10.93;;;;;;;-8.39;100.00;96516.34;4965656;28;20051;-71
2023/01/23 00:51:04;;;;;;;31.30;11.90;;;;;;;-8.41;100.00;96510.53;4971042;28;20489;-71
2023/01/23 00:53:30;;;;;;;29.65;11.68;;;;;;;-8.44;100.00;96510.03;4969362;28;20072;-71
2023/01/23 00:55:55;;;;;;;25.70;11.02;;;;;;;-8.47;100.00;96515.38;4963627;28;20035;-71
2023/01/23 00:58:21;;;;;;;28.00;12.00;;;;;;;-8.45;100.00;96518.63;4966081;28;20485;-71
2023/01/23 01:00:46;;;;;;;32.95;12.18;;;;;;;-8.50;100.00;96525.81;4968909;28;20046;-71
2023/01/23 01:03:12;;;;;;;26.58;10.98;;;;;;;-8.49;100.00;96527.44;4969803;28;20047;-70
2023/01/23 01:05:37;;;;;;;25.55;11.23;;;;;;;-8.42;100.00;96533.66;4968981;28;20039;-71
2023/01/23 01:08:04;;;;;;;30.00;12.23;;;;;;;-8.31;100.00;96536.13;4971619;28;20046;-70
2023/01/23 01:10:31;;;;;;;26.60;10.35;;;;;;;-8.21;100.00;96534.44;4970213;28;20097;-71
2023/01/23 01:12:58;;;;;;;23.27;10.30;;;;;;;-8.08;100.00;96539.34;4970873;28;20066;-71
2023/01/23 01:15:24;;;;;;;30.00;11.40;;;;;;;-8.04;100.00;96537.34;4958805;28;20036;-70
2023/01/23 01:17:52;;;;;;;28.65;11.68;;;;;;;-7.99;100.00;96535.19;4952638;28;20488;-71
2023/01/23 01:20:19;;;;;;;27.25;12.82;;;;;;;-7.98;100.00;96541.94;4964132;28;20086;-71
2023/01/23 01:22:44;;;;;;;29.17;11.75;;;;;;;-7.91;100.00;96537.94;4970617;28;20087;-71
2023/01/23 01:25:10;;;;;;;29.05;11.50;;;;;;;-7.90;100.00;96539.56;4960209;28;20539;-71
2023/01/23 01:27:35;;;;;;;36.90;14.48;;;;;;;-7.86;100.00;96535.81;4971439;28;20035;-71
2023/01/23 01:30:01;;;;;;;26.60;11.30;;;;;;;-7.85;100.00;96537.41;4970086;28;20088;-71
2023/01/23 01:32:26;;;;;;;31.50;11.73;;;;;;;-7.77;100.00;96533.41;4975572;28;20041;-70
2023/01/23 01:34:52;;;;;;;29.17;11.75;;;;;;;-7.69;100.00;96536.13;4952951;28;20038;-70
2023/01/23 01:37:20;;;;;;;29.23;11.20;;;;;;;-7.62;100.00;96532.09;4972041;28;20039;-71
2023/01/23 01:39:47;;;;;;;25.45;11.48;;;;;;;-7.58;100.00;96528.34;4963631;28;20101;-71
2023/01/23 01:42:12;;;;;;;25.23;11.40;;;;;;;-7.56;100.00;96523.91;4973388;28;20039;-71
2023/01/23 01:44:58;;;;;;;30.30;12.05;;;;;;;-7.54;100.00;96514.38;4970527;28;20556;-71
2023/01/23 01:47:25;;;;;;;29.55;11.55;;;;;;;-7.44;100.00;96518.69;4962491;28;20050;-70
2023/01/23 01:49:55;;;;;;;31.58;11.27;;;;;;;-7.40;100.00;96508.06;4955614;28;20047;-70
2023/01/23 01:52:22;;;;;;;26.60;11.07;;;;;;;-7.36;100.00;96517.09;4969651;28;20042;-71
2023/01/23 01:54:50;;;;;;;31.35;11.65;;;;;;;-7.32;100.00;96512.53;4967671;28;20035;-70
2023/01/23 01:57:33;;;;;;;32.38;12.77;;;;;;;-7.36;100.00;96511.19;4950158;28;20038;-70
2023/01/23 02:00:06;;;;;;;28.45;11.57;;;;;;;-7.26;100.00;96511.19;4963710;28;20125;-71
2023/01/23 02:02:37;;;;;;;31.00;11.13;;;;;;;-7.23;100.00;96516.03;4964728;28;20054;-72
2023/01/23 02:05:12;;;;;;;26.25;11.93;;;;;;;-7.19;100.00;96513.06;4942814;28;20053;-70
2023/01/23 02:07:53;;;;;;;22.27;10.35;;;;;;;-7.20;100.00;96516.56;4971313;28;20563;-71
2023/01/23 02:10:20;;;;;;;30.55;10.98;;;;;;;-7.17;100.00;96510.38;4971364;28;20082;-71
2023/01/23 02:12:47;;;;;;;26.05;11.25;;;;;;;-7.13;100.00;96507.41;4968340;28;20042;-70
2023/01/23 02:15:15;;;;;;;27.08;10.85;;;;;;;-7.10;100.00;96510.66;4959616;28;20038;-70
2023/01/23 02:17:42;;;;;;;24.30;10.73;;;;;;;-7.09;100.00;96507.97;4970998;28;20493;-71
2023/01/23 02:20:19;;;;;;;31.60;12.05;;;;;;;-7.06;100.00;96496.66;4968774;28;20038;-71
2023/01/23 02:23:15;;;;;;;31.77;11.82;;;;;;;-6.96;100.00;96494.91;4967064;28;20501;-71
2023/01/23 02:25:44;;;;;;;22.80;10.35;;;;;;;-6.89;100.00;96493.41;4968473;28;20050;-70
2023/01/23 02:28:15;;;;;;;32.10;12.15;;;;;;;-6.91;100.00;96500.44;4959328;28;20382;-70
2023/01/23 02:30:42;;;;;;;27.98;12.63;;;;;;;-6.84;100.00;96493.84;4954360;28;20713;-70
2023/01/23 02:33:20;;;;;;;28.35;12.38;;;;;;;-6.80;100.00;96496.91;4975532;28;20571;-70
2023/01/23 02:35:45;;;;;;;28.38;11.50;;;;;;;-6.74;100.00;96495.56;4964234;28;20043;-71
2023/01/23 02:38:11;;;;;;;30.40;12.43;;;;;;;-6.67;100.00;96491.50;4968425;28;21053;-71
2023/01/23 02:40:41;;;;;;;30.70;11.43;;;;;;;-6.63;100.00;96487.72;4965328;28;20070;-71
2023/01/23 02:43:14;;;;;;;31.48;11.75;;;;;;;-6.52;100.00;96486.75;4961296;28;20043;-70
2023/01/23 02:45:40;;;;;;;30.42;12.65;;;;;;;-6.49;100.00;96489.06;4968367;28;20050;-70
2023/01/23 02:48:07;;;;;;;26.70;11.00;;;;;;;-6.46;100.00;96488.78;4953418;28;20159;-71
2023/01/23 02:50:33;;;;;;;37.50;12.57;;;;;;;-6.37;100.00;96482.00;4966568;28;20038;-70
2023/01/23 02:52:58;;;;;;;30.38;12.52;;;;;;;-6.38;100.00;96486.31;4969862;28;20050;-70
2023/01/23 02:55:28;;;;;;;27.45;10.77;;;;;;;-6.39;100.00;96483.88;4964576;28;20049;-70
2023/01/23 03:00:14;;;;;;;32.67;12.30;;;;;;;-6.31;100.00;96489.13;4970793;28;20074;-70
2023/01/23 03:00:42;;;;;;;34.50;13.20;;;;;;;-6.21;100.00;96489.91;4965613;28;20775;-71
2023/01/23 03:03:08;;;;;;;33.13;12.73;;;;;;;-6.12;100.00;96491.66;4966663;28;20045;-70
2023/01/23 03:05:34;;;;;;;30.45;13.40;;;;;;;-5.98;100.00;96502.38;4966583;28;20763;-70
2023/01/23 03:07:59;;;;;;;37.13;14.60;;;;;;;-5.93;100.00;96506.09;4948046;28;20035;-71
2023/01/23 03:10:25;;;;;;;35.00;14.02;;;;;;;-5.85;100.00;96513.06;4967691;28;20428;-70
2023/01/23 03:12:50;;;;;;;36.05;13.90;;;;;;;-5.82;100.00;96512.81;4969183;28;20031;-70
2023/01/23 03:15:16;;;;;;;35.30;12.25;;;;;;;-5.80;100.00;96520.38;4966418;28;20060;-71
2023/01/23 03:17:42;;;;;;;36.20;14.40;;;;;;;-5.77;100.00;96520.06;4967955;28;20050;-71
2023/01/23 03:20:08;;;;;;;34.00;13.88;;;;;;;-5.71;100.00;96516.13;4963820;28;20097;-70
2023/01/23 03:22:34;;;;;;;35.40;13.27;;;;;;;-5.72;100.00;96511.94;4969021;28;20535;-70
2023/01/23 03:25:00;;;;;;;31.80;13.27;;;;;;;-5.69;100.00;96511.66;4966513;28;20035;-70
2023/01/23 03:27:25;;;;;;;31.60;13.00;;;;;;;-5.62;100.00;96512.72;4967466;28;20101;-70
2023/01/23 03:33:29;;;;;;;31.95;12.30;;;;;;;-5.54;100.00;96504.31;4990927;28;20066;-71
2023/01/23 03:35:54;;;;;;;41.47;14.90;;;;;;;-5.48;100.00;96507.09;4967409;28;20058;-71
2023/01/23 03:38:20;;;;;;;34.88;13.75;;;;;;;-5.41;100.00;96500.44;4973727;28;20114;-71
2023/01/23 03:43:33;;;;;;;29.83;12.93;;;;;;;-5.45;100.00;96506.81;4978999;28;20065;-71
2023/01/23 03:45:59;;;;;;;31.90;12.70;;;;;;;-5.41;100.00;96510.69;4977923;28;20557;-71
2023/01/23 03:48:24;;;;;;;34.47;13.10;;;;;;;-5.36;100.00;96501.75;4972762;28;20043;-70
2023/01/23 03:50:50;;;;;;;34.55;14.05;;;;;;;-5.27;100.00;96506.03;4974840;28;20043;-71
2023/01/23 03:53:16;;;;;;;36.08;13.80;;;;;;;-5.27;100.00;96506.03;4978645;28;20278;-70
2023/01/23 03:55:44;;;;;;;39.78;14.52;;;;;;;-5.20;100.00;96509.63;4975797;28;20501;-71
2023/01/23 03:58:10;;;;;;;32.00;12.45;;;;;;;-5.17;100.00;96509.34;4964408;28;20050;-71
2023/01/23 04:00:35;;;;;;;36.28;13.70;;;;;;;-5.16;100.00;96507.56;4979785;28;20043;-71
2023/01/23 04:03:01;;;;;;;31.02;13.23;;;;;;;-5.15;100.00;96515.13;4977858;28;20054;-71
2023/01/23 04:05:26;;;;;;;34.28;13.05;;;;;;;-5.11;100.00;96516.44;4974576;28;20039;-71
2023/01/23 04:07:52;;;;;;;33.28;13.93;;;;;;;-5.08;100.00;96521.28;4974975;28;20046;-71
2023/01/23 04:10:17;;;;;;;32.95;14.10;;;;;;;-5.12;100.00;96519.97;4979765;28;20073;-70
2023/01/23 04:12:43;;;;;;;32.95;13.65;;;;;;;-5.11;100.00;96521.59;4975589;28;20042;-71
2023/01/23 04:15:09;;;;;;;27.42;12.73;;;;;;;-5.10;100.00;96520.63;4977336;28;20042;-70
2023/01/23 04:17:35;;;;;;;39.42;14.95;;;;;;;-5.03;100.00;96525.19;4972522;28;20530;-70
2023/01/23 04:20:01;;;;;;;35.95;13.80;;;;;;;-5.03;100.00;96527.75;4975961;28;20055;-71
2023/01/23 04:22:27;;;;;;;34.15;14.45;;;;;;;-5.00;100.00;96530.03;4970816;28;20051;-71
2023/01/23 04:24:52;;;;;;;32.30;12.93;;;;;;;-4.97;100.00;96527.16;4978559;28;20425;-71
2023/01/23 04:27:18;;;;;;;35.17;13.73;;;;;;;-4.92;100.00;96530.09;4973550;28;20046;-71
2023/01/23 04:29:43;;;;;;;32.33;13.85;;;;;;;-4.93;100.00;96537.00;4972350;28;20055;-70
2023/01/23 04:32:09;;;;;;;32.75;13.93;;;;;;;-4.93;100.00;96533.63;4967226;28;20042;-71
2023/01/23 04:34:34;;;;;;;34.58;14.60;;;;;;;-4.93;100.00;96533.63;4976892;28;20086;-71
2023/01/23 04:37:00;;;;;;;36.40;13.98;;;;;;;-5.00;100.00;96527.44;4975368;28;20090;-71
2023/01/23 04:39:25;;;;;;;32.75;13.18;;;;;;;-5.09;100.00;96522.22;4970017;28;20071;-70
2023/01/23 04:41:51;;;;;;;37.72;15.00;;;;;;;-5.14;100.00;96521.88;4979822;28;20121;-71
2023/01/23 04:44:19;;;;;;;37.00;13.93;;;;;;;-5.18;100.00;96525.69;4972427;28;20520;-70
2023/01/23 04:46:46;;;;;;;35.03;14.45;;;;;;;-5.15;100.00;96524.59;4990082;28;20051;-71
2023/01/23 04:49:12;;;;;;;39.45;15.02;;;;;;;-5.10;100.00;96528.34;4974354;28;20043;-71
2023/01/23 04:51:37;;;;;;;31.63;13.75;;;;;;;-5.17;100.00;96527.31;4985006;28;20050;-71
2023/01/23 04:54:03;;;;;;;34.35;14.45;;;;;;;-5.16;100.00;96534.03;4968762;28;20050;-70
2023/01/23 04:56:28;;;;;;;35.63;13.27;;;;;;;-5.14;100.00;96527.00;4978713;28;20045;-70
2023/01/23 04:58:54;;;;;;;32.92;13.73;;;;;;;-5.07;100.00;96528.03;4973835;28;20521;-70
2023/01/23 05:01:22;;;;;;;36.45;14.32;;;;;;;-5.03;100.00;96522.63;4978973;28;20035;-70
2023/01/23 05:03:48;;;;;;;35.22;13.55;;;;;;;-5.01;100.00;96525.81;4980154;28;20053;-71
2023/01/23 05:06:14;;;;;;;32.90;13.13;;;;;;;-4.97;100.00;96532.28;4984918;28;20046;-71
2023/01/23 05:08:40;;;;;;;35.95;14.10;;;;;;;-4.93;100.00;96533.63;4971480;28;20078;-70
2023/01/23 05:11:05;;;;;;;34.80;13.70;;;;;;;-4.93;100.00;96533.63;4976961;28;20576;-71
2023/01/23 05:13:31;;;;;;;32.58;14.07;;;;;;;-4.87;100.00;96527.88;4973296;28;20107;-70
2023/01/23 05:15:57;;;;;;;30.38;13.63;;;;;;;-4.94;100.00;96526.84;4977258;28;20047;-70
2023/01/23 05:18:22;;;;;;;31.60;13.82;;;;;;;-5.06;100.00;96519.41;4988687;28;20457;-70
2023/01/23 05:20:47;;;;;;;32.30;12.63;;;;;;;-4.94;100.00;96532.00;4979905;28;20046;-70
2023/01/23 05:23:13;;;;;;;33.83;12.32;;;;;;;-4.87;100.00;96533.84;4973381;28;20062;-71
2023/01/23 05:25:39;;;;;;;30.40;12.95;;;;;;;-4.85;100.00;96538.84;4974315;28;20046;-70
2023/01/23 05:28:04;;;;;;;33.28;13.95;;;;;;;-4.87;100.00;96549.25;4976760;28;20069;-71
2023/01/23 05:30:30;;;;;;;32.10;13.65;;;;;;;-4.81;100.00;96558.13;4974524;28;20046;-71
2023/01/23 05:32:55;;;;;;;36.13;13.52;;;;;;;-4.85;100.00;96561.94;4976889;28;20042;-71
2023/01/23 05:35:21;;;;;;;36.65;13.90;;;;;;;-4.84;100.00;96568.69;4972164;28;20047;-71
2023/01/23 05:37:50;;;;;;;37.13;13.38;;;;;;;-4.88;100.00;96563.03;4981994;28;20050;-71
2023/01/23 05:40:16;;;;;;;30.40;12.70;;;;;;;-4.84;100.00;96562.72;4975667;28;20046;-71
2023/01/23 05:42:42;;;;;;;31.15;12.88;;;;;;;-4.76;100.00;96561.03;4977454;28;20073;-71
2023/01/23 05:45:08;;;;;;;33.05;13.48;;;;;;;-4.79;100.00;96561.34;4982198;28;20504;-71
2023/01/23 05:47:34;;;;;;;31.08;14.00;;;;;;;-4.69;100.00;96558.72;4989941;28;20038;-71
2023/01/23 05:50:00;;;;;;;33.35;13.43;;;;;;;-4.63;100.00;96565.00;4990234;28;20038;-71
2023/01/23 05:52:26;;;;;;;31.98;13.40;;;;;;;-4.68;100.00;96556.94;4980446;28;20121;-71
2023/01/23 05:54:52;;;;;;;30.13;13.15;;;;;;;-4.68;100.00;96554.38;4976499;28;20125;-71
2023/01/23 05:57:17;;;;;;;35.53;13.98;;;;;;;-4.62;100.00;96552.03;4986695;28;20093;-72
2023/01/23 05:59:43;;;;;;;32.10;14.02;;;;;;;-4.58;100.00;96552.53;4969158;28;20051;-71
2023/01/23 06:02:09;;;;;;;33.35;13.63;;;;;;;-4.61;100.00;96545.13;4984043;28;20100;-71
2023/01/23 06:04:34;;;;;;;35.88;15.05;;;;;;;-4.54;100.00;96548.69;4983150;28;20042;-71
2023/01/23 06:07:00;;;;;;;32.45;13.82;;;;;;;-4.53;100.00;96545.19;4982062;28;20166;-71
2023/01/23 06:09:25;;;;;;;30.85;12.07;;;;;;;-4.50;100.00;96550.03;4978327;28;20089;-71
2023/01/23 06:11:51;;;;;;;31.60;14.57;;;;;;;-4.56;100.00;96550.63;4983958;28;20056;-71
2023/01/23 06:14:17;;;;;;;33.17;14.40;;;;;;;-4.54;100.00;96558.97;4975983;28;20054;-71
2023/01/23 06:16:43;;;;;;;34.97;13.90;;;;;;;-4.51;100.00;96566.41;4979643;28;20039;-71
2023/01/23 06:19:09;;;;;;;36.00;13.73;;;;;;;-4.47;100.00;96570.28;4976023;28;20054;-72
2023/01/23 06:21:35;;;;;;;35.53;13.77;;;;;;;-4.48;100.00;96578.97;4962080;28;20041;-71
2023/01/23 06:24:01;;;;;;;31.92;14.30;;;;;;;-4.50;100.00;96570.56;4976260;28;20043;-71
2023/01/23 06:26:27;;;;;;;35.75;13.82;;;;;;;-4.45;100.00;96573.53;4977090;28;20562;-71
2023/01/23 06:28:52;;;;;;;30.58;13.93;;;;;;;-4.45;100.00;96573.53;4979108;28;20039;-70
2023/01/23 06:31:18;;;;;;;35.67;14.27;;;;;;;-4.43;100.00;96575.94;4980685;28;20424;-70
2023/01/23 06:33:43;;;;;;;32.47;13.48;;;;;;;-4.41;100.00;96574.84;4977030;28;20043;-71
2023/01/23 06:36:09;;;;;;;35.40;14.40;;;;;;;-4.38;100.00;96569.41;4974958;28;20049;-71
2023/01/23 06:38:34;;;;;;;31.20;14.13;;;;;;;-4.36;100.00;96561.53;4971890;28;20042;-71
2023/01/23 06:41:00;;;;;;;31.73;14.07;;;;;;;-4.35;100.00;96558.81;4978148;28;20120;-71
2023/01/23 06:43:26;;;;;;;36.30;14.23;;;;;;;-4.37;100.00;96560.75;4982171;28;20068;-71
2023/01/23 06:45:52;;;;;;;35.00;14.32;;;;;;;-4.33;100.00;96565.56;4973203;28;20092;-73
2023/01/23 06:48:17;;;;;;;36.78;14.15;;;;;;;-4.30;100.00;96560.13;4978495;28;20781;-70
2023/01/23 06:50:43;;;;;;;38.17;14.20;;;;;;;-4.28;100.00;96558.22;4973152;28;20042;-71
2023/01/23 06:53:13;;;;;;;41.08;16.40;;;;;;;-4.27;100.00;96565.75;4979233;28;20047;-72
2023/01/23 06:55:40;;;;;;;49.05;17.52;;;;;;;-4.26;100.00;96556.31;4981162;28;20308;-73
2023/01/23 06:58:06;;;;;;;46.75;16.50;;;;;;;-4.28;100.00;96563.34;4977699;28;20572;-71
2023/01/23 07:00:35;;;;;;;46.05;16.50;;;;;;;-4.25;100.00;96573.31;4971775;28;20050;-71
2023/01/23 07:03:02;;;;;;;50.47;16.92;;;;;;;-4.24;100.00;96580.09;4974054;28;20050;-74
2023/01/23 07:05:29;;;;;;;47.65;17.85;;;;;;;-4.24;100.00;96570.63;4980830;28;20410;-69
2023/01/23 07:07:54;;;;;;;46.40;17.42;;;;;;;-4.22;100.00;96567.91;4980184;28;20097;-71
2023/01/23 07:10:22;;;;;;;60.85;18.05;;;;;;;-4.20;100.00;96576.25;4970626;28;20046;-73
2023/01/23 07:12:48;;;;;;;55.63;18.33;;;;;;;-4.15;100.00;96578.38;4984329;28;20067;-72
2023/01/23 07:15:14;;;;;;;67.25;21.17;;;;;;;-4.14;100.00;96580.78;4964708;28;20050;-72
2023/01/23 07:17:39;;;;;;;64.60;19.83;;;;;;;-4.14;100.00;96591.09;4978340;28;20560;-71
2023/01/23 07:20:05;;;;;;;55.35;18.63;;;;;;;-4.00;100.00;96587.16;4978345;28;20046;-72
2023/01/23 07:22:31;;;;;;;63.55;18.13;;;;;;;-3.97;100.00;96589.44;4981610;28;20051;-72
2023/01/23 07:24:56;;;;;;;68.53;21.15;;;;;;;-4.02;100.00;96600.19;4977729;28;20073;-71
2023/01/23 07:27:22;;;;;;;65.95;19.98;;;;;;;-3.97;100.00;96602.28;4966679;28;20042;-72
2023/01/23 07:29:48;;;;;;;84.03;21.20;;;;;;;-4.01;100.00;96606.94;4979513;28;20549;-72
2023/01/23 07:32:13;;;;;;;63.67;20.70;;;;;;;-4.02;100.00;96605.31;4976666;28;20426;-72
2023/01/23 07:34:39;;;;;;;78.63;21.85;;;;;;;-4.09;100.00;96603.50;4977075;28;20051;-72
2023/01/23 07:37:04;;;;;;;78.97;21.85;;;;;;;-4.04;100.00;96601.28;4975197;28;20459;-72
2023/01/23 07:39:30;;;;;;;62.40;19.45;;;;;;;-4.01;100.00;96591.50;4976762;28;20527;-71
2023/01/23 07:41:55;;;;;;;82.53;22.38;;;;;;;-3.98;100.00;96589.59;4976074;28;20055;-73
2023/01/23 07:44:21;;;;;;;73.13;19.77;;;;;;;-3.94;100.00;96596.03;4981093;28;20042;-72
2023/01/23 07:46:47;;;;;;;67.97;20.52;;;;;;;-3.93;100.00;96577.09;4976920;28;20062;-72
2023/01/23 07:49:14;;;;;;;78.13;21.20;;;;;;;-3.96;100.00;96597.97;4977503;28;20038;-72
2023/01/23 07:51:40;;;;;;;83.22;20.42;;;;;;;-3.87;100.00;96609.91;4974658;28;20043;-73
2023/01/23 07:54:07;;;;;;;78.00;19.30;;;;;;;-3.93;100.00;96608.75;4973381;28;20050;-71
2023/01/23 07:56:32;;;;;;;73.63;18.55;;;;;;;-3.93;100.00;96598.47;4981424;28;20035;-72
2023/01/23 07:58:58;;;;;;;90.93;23.33;;;;;;;-3.84;100.00;96614.75;4976203;28;20118;-72
2023/01/23 08:01:24;;;;;;;77.90;19.70;;;;;;;-3.88;100.00;96610.84;4980528;28;20385;-75
2023/01/23 08:03:51;;;;;;;92.25;20.65;;;;;;;-3.77;100.00;96613.19;4981213;28;20501;-73
2023/01/23 08:06:17;;;;;;;94.82;23.35;;;;;;;-3.79;100.00;96607.41;4986346;28;20046;-72
2023/01/23 08:08:42;;;;;;;73.50;20.00;;;;;;;-3.88;100.00;96611.69;4976372;28;20081;-71
2023/01/23 08:11:10;;;;;;;90.30;21.30;;;;;;;-3.78;100.00;96606.41;4982893;28;20046;-71
2023/01/23 08:13:36;;;;;;;80.20;22.52;;;;;;;-3.71;100.00;96602.28;4982063;28;20045;-72
2023/01/23 08:16:02;;;;;;;81.95;19.85;;;;;;;-3.69;100.00;96595.22;4980001;28;20042;-71
2023/01/23 08:18:29;;;;;;;77.35;21.08;;;;;;;-3.60;100.00;96608.16;4973049;28;20046;-72
2023/01/23 08:20:56;;;;;;;80.53;20.85;;;;;;;-3.62;100.00;96603.16;4984067;28;20046;-71
2023/01/23 08:23:26;;;;;;;91.00;21.75;;;;;;;-3.60;100.00;96597.84;4984321;28;20047;-71
2023/01/23 08:25:54;;;;;;;83.88;21.27;;;;;;;-3.60;100.00;96597.84;4984664;28;20050;-72
2023/01/23 08:28:20;;;;;;;85.40;21.60;;;;;;;-3.53;100.00;96593.72;4965316;28;20398;-72
2023/01/23 08:30:46;;;;;;;71.10;19.70;;;;;;;-3.53;100.00;96598.84;4977109;28;20042;-76
2023/01/23 08:33:11;;;;;;;60.72;18.85;;;;;;;-3.47;100.00;96608.53;4976548;28;20102;-71
2023/01/23 08:35:37;;;;;;;69.88;19.92;;;;;;;-3.49;100.00;96620.75;4985362;28;20112;-72
2023/01/23 08:38:04;;;;;;;70.00;19.80;;;;;;;-3.46;100.00;96623.00;4979249;28;20467;-72
2023/01/23 08:40:29;;;;;;;63.83;19.58;;;;;;;-3.39;100.00;96613.72;4982106;28;20042;-73
2023/01/23 08:42:55;;;;;;;66.93;19.77;;;;;;;-3.38;100.00;96607.59;4983729;28;20561;-71
2023/01/23 08:45:21;;;;;;;69.25;19.25;;;;;;;-3.34;100.00;96608.09;4966618;28;20533;-73
2023/01/23 08:47:47;;;;;;;62.83;19.45;;;;;;;-3.35;100.00;96591.03;4981869;28;20073;-72
2023/01/23 08:50:12;;;;;;;63.38;18.88;;;;;;;-3.25;100.00;96606.34;4983968;28;20497;-72
2023/01/23 08:52:38;;;;;;;75.35;18.77;;;;;;;-3.27;100.00;96614.25;4985722;28;20133;-72
2023/01/23 08:55:04;;;;;;;54.70;18.05;;;;;;;-3.24;100.00;96613.13;4986626;28;20074;-72
2023/01/23 08:57:30;;;;;;;62.28;19.05;;;;;;;-3.27;100.00;96614.25;4980884;28;20043;-72
2023/01/23 08:59:55;;;;;;;68.53;19.05;;;;;;;-3.19;100.00;96610.88;4979154;28;20043;-72
2023/01/23 09:02:21;;;;;;;69.60;18.85;;;;;;;-3.16;100.00;96618.28;4974480;28;20042;-72
2023/01/23 09:04:47;;;;;;;71.45;19.08;;;;;;;-3.14;100.00;96613.81;4974639;28;20506;-72
2023/01/23 09:07:12;;;;;;;54.13;15.63;;;;;;;-3.12;100.00;96617.03;4976177;28;20505;-72
2023/01/23 09:09:38;;;;;;;66.47;18.58;;;;;;;-2.98;100.00;96613.06;4982841;28;20062;-71
2023/01/23 09:12:04;;;;;;;72.22;21.45;;;;;;;-2.96;100.00;96611.94;4983662;28;20050;-72
2023/01/23 09:14:29;;;;;;;62.67;20.50;;;;;;;-3.06;100.00;96625.88;4964915;28;20050;-72
2023/01/23 09:16:55;;;;;;;72.15;21.08;;;;;;;-3.06;100.00;96621.56;4985476;28;20046;-72
2023/01/23 09:19:20;;;;;;;71.68;18.95;;;;;;;-2.94;100.00;96618.69;4980296;28;20398;-73
2023/01/23 09:21:46;;;;;;;70.82;21.50;;;;;;;-2.94;100.00;96614.34;4978773;28;20043;-74
2023/01/23 09:24:11;;;;;;;77.28;20.27;;;;;;;-2.92;100.00;96612.41;4983065;28;20053;-72
2023/01/23 09:26:37;;;;;;;70.20;18.58;;;;;;;-2.83;100.00;96618.38;4972203;28;20061;-73
2023/01/23 09:29:02;;;;;;;75.18;22.50;;;;;;;-2.77;100.00;96604.91;4984460;28;20043;-72
2023/01/23 09:31:28;;;;;;;77.20;21.42;;;;;;;-2.78;100.00;96598.13;4977737;28;20245;-71
2023/01/23 09:33:54;;;;;;;78.60;20.60;;;;;;;-2.72;100.00;96607.78;4979408;28;20055;-72
2023/01/23 09:36:19;;;;;;;70.47;22.42;;;;;;;-2.83;100.00;96601.19;4967806;28;20413;-72
2023/01/23 09:38:47;;;;;;;83.40;22.15;;;;;;;-2.73;100.00;96595.88;4975489;28;20047;-72
2023/01/23 09:41:18;;;;;;;72.18;20.23;;;;;;;-2.69;100.00;96597.16;4982568;28;20046;-72
2023/01/23 09:43:50;;;;;;;78.65;22.60;;;;;;;-2.66;100.00;96607.19;4984526;28;20057;-72
2023/01/23 09:46:54;;;;;;;80.57;21.90;;;;;;;-2.64;100.00;96619.91;4980821;28;20046;-72
2023/01/23 09:49:37;;;;;;;73.72;22.25;;;;;;;-2.84;100.00;96619.38;4965017;28;20398;-72
2023/01/23 09:52:22;;;;;;;84.55;21.70;;;;;;;-2.75;100.00;96623.56;4981150;28;20043;-72
2023/01/23 09:54:54;;;;;;;95.28;23.83;;;;;;;-2.81;100.00;96613.91;4986742;28;20053;-72
2023/01/23 09:57:33;;;;;;;90.20;23.63;;;;;;;-2.74;100.00;96614.88;4974014;28;20053;-72
2023/01/23 10:00:19;;;;;;;104.85;25.40;;;;;;;-2.63;100.00;96611.19;4977963;28;20105;-72
2023/01/23 10:02:45;;;;;;;92.88;23.92;;;;;;;-2.55;100.00;96618.94;4968924;28;20042;-72
2023/01/23 10:05:15;;;;;;;93.25;23.88;;;;;;;-2.42;100.00;96608.16;4985527;28;20497;-72
2023/01/23 10:08:16;;;;;;;101.13;25.08;;;;;;;-2.39;100.00;96592.34;4972591;28;20070;-72
2023/01/23 10:10:53;;;;;;;103.40;25.63;;;;;;;-2.31;100.00;96602.69;4978170;28;20514;-72
2023/01/23 10:13:32;;;;;;;104.47;25.42;;;;;;;-2.36;100.00;96597.19;4956859;28;20077;-72
2023/01/23 10:16:10;;;;;;;112.30;27.10;;;;;;;-2.36;100.00;96592.03;4981005;28;20046;-72
2023/01/23 10:18:58;;;;;;;87.05;25.63;;;;;;;-2.46;100.00;96596.53;4977492;28;20049;-72
2023/01/23 10:21:40;;;;;;;109.88;25.73;;;;;;;-2.39;100.00;96586.41;4978482;28;20036;-73
2023/01/23 10:24:39;;;;;;;108.07;27.52;;;;;;;-2.45;100.00;96582.69;4968726;28;20701;-73
2023/01/23 10:27:17;;;;;;;93.75;25.48;;;;;;;-2.49;100.00;96582.19;4984589;28;20069;-73
2023/01/23 10:29:48;;;;;;;103.20;25.88;;;;;;;-2.37;100.00;96580.13;4974617;28;20097;-73
2023/01/23 10:32:45;;;;;;;109.07;27.77;;;;;;;-2.37;100.00;96580.13;4963991;28;20052;-73
2023/01/23 10:35:23;;;;;;;100.18;26.52;;;;;;;-2.28;100.00;96584.31;4979586;28;20053;-73
2023/01/23 10:38:11;;;;;;;110.30;25.60;;;;;;;-2.19;100.00;96581.72;4978290;28;20690;-73
2023/01/23 10:43:21;;;;;;;104.23;27.03;;;;;;;-2.16;100.00;96581.41;4985952;28;20046;-73
2023/01/23 10:45:48;;;;;;;119.35;27.83;;;;;;;-2.13;100.00;96581.06;4979215;28;20042;-73
2023/01/23 10:48:42;;;;;;;112.20;26.75;;;;;;;-2.11;100.00;96581.72;4979731;28;20085;-72
2023/01/23 10:51:29;;;;;;;113.72;26.65;;;;;;;-2.08;100.00;96578.81;4981170;28;20054;-73
2023/01/23 10:54:02;;;;;;;119.70;26.55;;;;;;;-1.92;100.00;96568.47;4964238;28;20062;-73
2023/01/23 10:56:28;;;;;;;128.77;29.98;;;;;;;-1.81;100.00;96569.09;4981672;28;20039;-72
2023/01/23 10:58:55;;;;;;;128.40;29.20;;;;;;;-2.00;100.00;96565.88;4983416;28;20089;-73
2023/01/23 11:01:30;;;;;;;117.65;27.88;;;;;;;-1.90;100.00;96554.59;4982830;28;20046;-73
2023/01/23 11:03:56;;;;;;;113.55;28.13;;;;;;;-1.88;100.00;96547.50;4964738;28;20042;-72
2023/01/23 11:06:27;;;;;;;113.18;27.30;;;;;;;-1.85;100.00;96547.16;4986593;28;20108;-71
2023/01/23 11:09:01;;;;;;;111.38;27.38;;;;;;;-1.81;100.00;96548.44;4984859;28;20077;-71
2023/01/23 11:11:29;;;;;;;121.38;29.20;;;;;;;-1.87;100.00;96543.94;4979658;28;20105;-71
2023/01/23 11:14:10;;;;;;;125.80;29.13;;;;;;;-1.78;100.00;96548.09;4965276;28;20053;-72
2023/01/23 11:16:36;;;;;;;128.38;29.60;;;;;;;-1.67;100.00;96539.22;4961356;28;20490;-73
2023/01/23 11:19:14;;;;;;;113.25;26.25;;;;;;;-1.58;100.00;96539.03;4975080;28;20498;-72
2023/01/23 11:22:00;;;;;;;111.95;25.20;;;;;;;-1.48;100.00;96528.50;4978120;28;20505;-72
2023/01/23 11:24:29;;;;;;;104.78;24.90;;;;;;;-1.58;100.00;96531.28;4978691;28;20496;-73